sensor_id;sensor_type;location;lat;lon;timestamp;P1;durP1;ratioP1;P2;durP2;ratioP2
55220;SDS011;41089;51.448;6.604;2023-08-01T00:01:55;1.30;;;1.20;;
55220;SDS011;41089;51.448;6.604;2023-08-01T00:07:55;1.40;;;1.30;;
55220;SDS011;41089;51.448;6.604;2023-08-01T00:13:56;1.70;;;1.60;;
55220;SDS011;41089;51.448;6.604;2023-08-01T00:19:56;4.17;;;1.53;;
55220;SDS011;41089;51.448;6.604;2023-08-01T00:25:56;1.17;;;1.10;;
55220;SDS011;41089;51.448;6.604;2023-08-01T00:31:57;4.93;;;1.80;;
55220;SDS011;41089;51.448;6.604;2023-08-01T00:37:57;2.50;;;1.70;;
55220;SDS011;41089;51.448;6.604;2023-08-01T00:43:58;4.10;;;1.58;;
55220;SDS011;41089;51.448;6.604;2023-08-01T00:49:58;3.63;;;1.55;;
55220;SDS011;41089;51.448;6.604;2023-08-01T00:55:59;2.05;;;1.85;;
55220;SDS011;41089;51.448;6.604;2023-08-01T01:01:59;2.35;;;1.88;;
55220;SDS011;41089;51.448;6.604;2023-08-01T01:08:00;6.05;;;2.10;;
55220;SDS011;41089;51.448;6.604;2023-08-01T01:14:03;3.08;;;2.58;;
55220;SDS011;41089;51.448;6.604;2023-08-01T01:20:04;3.50;;;2.80;;
55220;SDS011;41089;51.448;6.604;2023-08-01T01:26:05;3.13;;;2.25;;
55220;SDS011;41089;51.448;6.604;2023-08-01T01:32:06;2.20;;;2.00;;
55220;SDS011;41089;51.448;6.604;2023-08-01T01:38:07;1.95;;;1.85;;
55220;SDS011;41089;51.448;6.604;2023-08-01T01:44:08;3.00;;;2.10;;
55220;SDS011;41089;51.448;6.604;2023-08-01T01:50:08;2.35;;;2.25;;
55220;SDS011;41089;51.448;6.604;2023-08-01T01:56:09;3.83;;;3.47;;
55220;SDS011;41089;51.448;6.604;2023-08-01T02:02:09;4.18;;;3.28;;
55220;SDS011;41089;51.448;6.604;2023-08-01T02:08:09;3.67;;;3.35;;
55220;SDS011;41089;51.448;6.604;2023-08-01T02:14:10;5.10;;;3.42;;
55220;SDS011;41089;51.448;6.604;2023-08-01T02:20:10;4.65;;;4.25;;
55220;SDS011;41089;51.448;6.604;2023-08-01T02:26:11;8.48;;;5.68;;
55220;SDS011;41089;51.448;6.604;2023-08-01T02:32:12;11.32;;;6.95;;
55220;SDS011;41089;51.448;6.604;2023-08-01T02:38:12;13.40;;;10.13;;
55220;SDS011;41089;51.448;6.604;2023-08-01T02:44:13;11.63;;;9.07;;
55220;SDS011;41089;51.448;6.604;2023-08-01T02:50:14;12.98;;;11.50;;
55220;SDS011;41089;51.448;6.604;2023-08-01T02:56:14;11.48;;;10.30;;
55220;SDS011;41089;51.448;6.604;2023-08-01T03:02:15;22.88;;;12.57;;
55220;SDS011;41089;51.448;6.604;2023-08-01T03:08:15;11.27;;;10.05;;
55220;SDS011;41089;51.448;6.604;2023-08-01T03:14:16;14.18;;;9.60;;
55220;SDS011;41089;51.448;6.604;2023-08-01T03:20:16;13.90;;;9.07;;
55220;SDS011;41089;51.448;6.604;2023-08-01T03:26:17;12.95;;;9.10;;
55220;SDS011;41089;51.448;6.604;2023-08-01T03:32:18;18.30;;;12.50;;
55220;SDS011;41089;51.448;6.604;2023-08-01T03:38:18;15.45;;;11.30;;
55220;SDS011;41089;51.448;6.604;2023-08-01T03:44:19;13.40;;;10.17;;
55220;SDS011;41089;51.448;6.604;2023-08-01T03:50:19;17.60;;;11.55;;
55220;SDS011;41089;51.448;6.604;2023-08-01T03:56:19;14.10;;;11.55;;
55220;SDS011;41089;51.448;6.604;2023-08-01T04:02:20;19.50;;;11.40;;
55220;SDS011;41089;51.448;6.604;2023-08-01T04:08:20;15.70;;;12.00;;
55220;SDS011;41089;51.448;6.604;2023-08-01T04:14:20;20.98;;;13.07;;
55220;SDS011;41089;51.448;6.604;2023-08-01T04:20:21;16.13;;;13.63;;
55220;SDS011;41089;51.448;6.604;2023-08-01T04:26:21;14.57;;;11.77;;
55220;SDS011;41089;51.448;6.604;2023-08-01T04:32:22;21.42;;;14.98;;
55220;SDS011;41089;51.448;6.604;2023-08-01T04:38:22;19.50;;;14.67;;
55220;SDS011;41089;51.448;6.604;2023-08-01T04:44:22;17.73;;;12.88;;
55220;SDS011;41089;51.448;6.604;2023-08-01T04:50:23;16.00;;;12.73;;
55220;SDS011;41089;51.448;6.604;2023-08-01T04:56:23;19.67;;;14.65;;
55220;SDS011;41089;51.448;6.604;2023-08-01T05:02:24;22.10;;;15.05;;
55220;SDS011;41089;51.448;6.604;2023-08-01T05:08:24;22.35;;;16.70;;
55220;SDS011;41089;51.448;6.604;2023-08-01T05:14:24;17.90;;;15.30;;
55220;SDS011;41089;51.448;6.604;2023-08-01T05:20:25;26.00;;;16.73;;
55220;SDS011;41089;51.448;6.604;2023-08-01T05:26:30;25.98;;;17.38;;
55220;SDS011;41089;51.448;6.604;2023-08-01T05:32:30;29.33;;;18.40;;
55220;SDS011;41089;51.448;6.604;2023-08-01T05:38:31;21.43;;;16.47;;
55220;SDS011;41089;51.448;6.604;2023-08-01T05:44:31;19.00;;;17.07;;
55220;SDS011;41089;51.448;6.604;2023-08-01T05:50:32;20.27;;;15.33;;
55220;SDS011;41089;51.448;6.604;2023-08-01T05:56:32;22.23;;;15.63;;
55220;SDS011;41089;51.448;6.604;2023-08-01T06:02:33;20.55;;;15.40;;
55220;SDS011;41089;51.448;6.604;2023-08-01T06:08:34;22.25;;;14.77;;
55220;SDS011;41089;51.448;6.604;2023-08-01T06:14:34;23.00;;;15.67;;
55220;SDS011;41089;51.448;6.604;2023-08-01T06:20:34;18.77;;;15.70;;
55220;SDS011;41089;51.448;6.604;2023-08-01T06:26:35;24.50;;;16.37;;
55220;SDS011;41089;51.448;6.604;2023-08-01T06:32:35;21.43;;;15.23;;
55220;SDS011;41089;51.448;6.604;2023-08-01T06:38:35;22.27;;;15.02;;
55220;SDS011;41089;51.448;6.604;2023-08-01T06:44:36;23.45;;;14.73;;
55220;SDS011;41089;51.448;6.604;2023-08-01T06:50:37;15.68;;;11.80;;
55220;SDS011;41089;51.448;6.604;2023-08-01T06:56:37;14.87;;;11.17;;
55220;SDS011;41089;51.448;6.604;2023-08-01T07:02:37;14.73;;;11.27;;
55220;SDS011;41089;51.448;6.604;2023-08-01T07:08:38;18.07;;;10.27;;
55220;SDS011;41089;51.448;6.604;2023-08-01T07:14:38;14.53;;;10.73;;
55220;SDS011;41089;51.448;6.604;2023-08-01T07:20:39;17.23;;;9.37;;
55220;SDS011;41089;51.448;6.604;2023-08-01T07:26:39;16.50;;;10.60;;
55220;SDS011;41089;51.448;6.604;2023-08-01T07:32:39;17.65;;;10.13;;
55220;SDS011;41089;51.448;6.604;2023-08-01T07:38:40;13.63;;;9.13;;
55220;SDS011;41089;51.448;6.604;2023-08-01T07:44:40;16.40;;;9.60;;
55220;SDS011;41089;51.448;6.604;2023-08-01T07:50:40;14.50;;;10.38;;
55220;SDS011;41089;51.448;6.604;2023-08-01T07:56:41;20.33;;;9.77;;
55220;SDS011;41089;51.448;6.604;2023-08-01T08:02:44;19.23;;;9.75;;
55220;SDS011;41089;51.448;6.604;2023-08-01T08:08:45;11.93;;;9.02;;
55220;SDS011;41089;51.448;6.604;2023-08-01T08:14:45;12.05;;;8.30;;
55220;SDS011;41089;51.448;6.604;2023-08-01T08:20:46;14.20;;;9.55;;
55220;SDS011;41089;51.448;6.604;2023-08-01T08:26:47;13.97;;;8.87;;
55220;SDS011;41089;51.448;6.604;2023-08-01T08:32:47;18.00;;;9.43;;
55220;SDS011;41089;51.448;6.604;2023-08-01T08:38:48;11.27;;;8.45;;
55220;SDS011;41089;51.448;6.604;2023-08-01T08:44:50;13.15;;;8.30;;
55220;SDS011;41089;51.448;6.604;2023-08-01T08:50:56;12.25;;;7.72;;
55220;SDS011;41089;51.448;6.604;2023-08-01T08:56:58;9.60;;;6.90;;
55220;SDS011;41089;51.448;6.604;2023-08-01T09:02:58;13.77;;;6.88;;
55220;SDS011;41089;51.448;6.604;2023-08-01T09:09:03;11.30;;;5.38;;
55220;SDS011;41089;51.448;6.604;2023-08-01T09:15:05;11.55;;;5.05;;
55220;SDS011;41089;51.448;6.604;2023-08-01T09:21:05;9.90;;;4.68;;
55220;SDS011;41089;51.448;6.604;2023-08-01T09:27:06;13.05;;;4.38;;
55220;SDS011;41089;51.448;6.604;2023-08-01T09:33:08;7.43;;;4.40;;
55220;SDS011;41089;51.448;6.604;2023-08-01T09:39:08;7.28;;;4.55;;
55220;SDS011;41089;51.448;6.604;2023-08-01T09:45:16;6.65;;;4.13;;
55220;SDS011;41089;51.448;6.604;2023-08-01T09:51:18;4.82;;;3.38;;
55220;SDS011;41089;51.448;6.604;2023-08-01T09:57:19;8.50;;;4.13;;
55220;SDS011;41089;51.448;6.604;2023-08-01T10:09:25;6.38;;;4.53;;
55220;SDS011;41089;51.448;6.604;2023-08-01T10:15:28;7.80;;;3.90;;
55220;SDS011;41089;51.448;6.604;2023-08-01T10:21:29;6.43;;;3.50;;
55220;SDS011;41089;51.448;6.604;2023-08-01T10:27:29;6.80;;;3.90;;
55220;SDS011;41089;51.448;6.604;2023-08-01T10:33:32;4.78;;;3.60;;
55220;SDS011;41089;51.448;6.604;2023-08-01T10:39:33;6.30;;;4.13;;
55220;SDS011;41089;51.448;6.604;2023-08-01T10:45:34;8.25;;;5.05;;
55220;SDS011;41089;51.448;6.604;2023-08-01T10:51:34;7.80;;;3.73;;
55220;SDS011;41089;51.448;6.604;2023-08-01T10:57:36;5.68;;;2.47;;
55220;SDS011;41089;51.448;6.604;2023-08-01T11:03:39;5.80;;;2.67;;
55220;SDS011;41089;51.448;6.604;2023-08-01T11:09:40;5.80;;;2.85;;
55220;SDS011;41089;51.448;6.604;2023-08-01T11:15:40;7.28;;;3.50;;
55220;SDS011;41089;51.448;6.604;2023-08-01T11:21:40;5.77;;;2.50;;
55220;SDS011;41089;51.448;6.604;2023-08-01T11:27:41;5.20;;;2.55;;
55220;SDS011;41089;51.448;6.604;2023-08-01T11:33:41;7.37;;;3.00;;
55220;SDS011;41089;51.448;6.604;2023-08-01T11:39:42;4.28;;;2.47;;
55220;SDS011;41089;51.448;6.604;2023-08-01T11:45:51;5.03;;;2.75;;
55220;SDS011;41089;51.448;6.604;2023-08-01T11:51:54;5.47;;;2.60;;
55220;SDS011;41089;51.448;6.604;2023-08-01T11:57:55;6.80;;;3.07;;
55220;SDS011;41089;51.448;6.604;2023-08-01T12:03:56;6.20;;;3.60;;
55220;SDS011;41089;51.448;6.604;2023-08-01T12:09:58;10.13;;;3.90;;
55220;SDS011;41089;51.448;6.604;2023-08-01T12:16:00;8.77;;;3.28;;
55220;SDS011;41089;51.448;6.604;2023-08-01T12:22:00;6.72;;;3.55;;
55220;SDS011;41089;51.448;6.604;2023-08-01T12:28:01;6.00;;;2.65;;
55220;SDS011;41089;51.448;6.604;2023-08-01T12:34:03;5.68;;;2.25;;
55220;SDS011;41089;51.448;6.604;2023-08-01T12:40:03;6.22;;;2.55;;
55220;SDS011;41089;51.448;6.604;2023-08-01T12:46:04;6.30;;;3.10;;
55220;SDS011;41089;51.448;6.604;2023-08-01T12:52:05;5.90;;;3.03;;
55220;SDS011;41089;51.448;6.604;2023-08-01T12:58:06;3.42;;;2.70;;
55220;SDS011;41089;51.448;6.604;2023-08-01T13:04:06;5.30;;;2.70;;
55220;SDS011;41089;51.448;6.604;2023-08-01T13:10:07;5.45;;;2.70;;
55220;SDS011;41089;51.448;6.604;2023-08-01T13:16:09;10.65;;;3.13;;
55220;SDS011;41089;51.448;6.604;2023-08-01T13:22:11;5.43;;;3.00;;
55220;SDS011;41089;51.448;6.604;2023-08-01T13:28:11;8.30;;;3.15;;
55220;SDS011;41089;51.448;6.604;2023-08-01T13:34:12;10.63;;;2.63;;
55220;SDS011;41089;51.448;6.604;2023-08-01T13:40:12;6.83;;;2.60;;
55220;SDS011;41089;51.448;6.604;2023-08-01T13:46:14;7.53;;;2.85;;
55220;SDS011;41089;51.448;6.604;2023-08-01T13:52:16;4.75;;;1.92;;
55220;SDS011;41089;51.448;6.604;2023-08-01T13:58:16;5.30;;;2.03;;
55220;SDS011;41089;51.448;6.604;2023-08-01T14:04:16;6.28;;;2.78;;
55220;SDS011;41089;51.448;6.604;2023-08-01T14:10:17;6.05;;;2.70;;
55220;SDS011;41089;51.448;6.604;2023-08-01T14:16:17;4.82;;;2.10;;
55220;SDS011;41089;51.448;6.604;2023-08-01T14:22:18;6.30;;;2.30;;
55220;SDS011;41089;51.448;6.604;2023-08-01T14:28:18;4.20;;;2.45;;
55220;SDS011;41089;51.448;6.604;2023-08-01T14:34:19;5.77;;;2.40;;
55220;SDS011;41089;51.448;6.604;2023-08-01T14:40:19;6.37;;;2.20;;
55220;SDS011;41089;51.448;6.604;2023-08-01T14:46:19;6.25;;;2.30;;
55220;SDS011;41089;51.448;6.604;2023-08-01T14:52:20;3.25;;;1.77;;
55220;SDS011;41089;51.448;6.604;2023-08-01T14:58:22;4.00;;;2.15;;
55220;SDS011;41089;51.448;6.604;2023-08-01T15:04:23;4.65;;;2.20;;
55220;SDS011;41089;51.448;6.604;2023-08-01T15:10:24;4.43;;;1.90;;
55220;SDS011;41089;51.448;6.604;2023-08-01T15:16:24;4.20;;;1.60;;
55220;SDS011;41089;51.448;6.604;2023-08-01T15:22:25;4.63;;;1.65;;
55220;SDS011;41089;51.448;6.604;2023-08-01T15:28:25;3.90;;;1.63;;
55220;SDS011;41089;51.448;6.604;2023-08-01T15:34:26;3.55;;;1.65;;
55220;SDS011;41089;51.448;6.604;2023-08-01T15:40:26;5.78;;;2.05;;
55220;SDS011;41089;51.448;6.604;2023-08-01T15:46:27;5.15;;;2.00;;
55220;SDS011;41089;51.448;6.604;2023-08-01T15:52:28;5.28;;;2.60;;
55220;SDS011;41089;51.448;6.604;2023-08-01T15:58:29;5.47;;;2.67;;
55220;SDS011;41089;51.448;6.604;2023-08-01T16:04:30;6.13;;;1.98;;
55220;SDS011;41089;51.448;6.604;2023-08-01T16:10:31;7.03;;;2.00;;
55220;SDS011;41089;51.448;6.604;2023-08-01T16:16:31;3.40;;;1.40;;
55220;SDS011;41089;51.448;6.604;2023-08-01T16:22:32;3.03;;;1.50;;
55220;SDS011;41089;51.448;6.604;2023-08-01T16:28:32;4.10;;;1.40;;
55220;SDS011;41089;51.448;6.604;2023-08-01T16:34:33;5.10;;;1.60;;
55220;SDS011;41089;51.448;6.604;2023-08-01T16:40:33;6.38;;;1.67;;
55220;SDS011;41089;51.448;6.604;2023-08-01T16:46:35;3.27;;;1.40;;
55220;SDS011;41089;51.448;6.604;2023-08-01T16:52:35;4.88;;;1.70;;
55220;SDS011;41089;51.448;6.604;2023-08-01T16:58:36;3.20;;;1.70;;
55220;SDS011;41089;51.448;6.604;2023-08-01T17:04:36;4.30;;;1.50;;
55220;SDS011;41089;51.448;6.604;2023-08-01T17:10:37;5.67;;;1.70;;
55220;SDS011;41089;51.448;6.604;2023-08-01T17:16:37;3.50;;;1.50;;
55220;SDS011;41089;51.448;6.604;2023-08-01T17:22:38;2.03;;;1.40;;
55220;SDS011;41089;51.448;6.604;2023-08-01T17:28:39;2.83;;;1.70;;
55220;SDS011;41089;51.448;6.604;2023-08-01T17:34:39;2.97;;;1.20;;
55220;SDS011;41089;51.448;6.604;2023-08-01T17:40:43;3.80;;;1.87;;
55220;SDS011;41089;51.448;6.604;2023-08-01T17:46:45;3.92;;;1.35;;
55220;SDS011;41089;51.448;6.604;2023-08-01T17:52:45;4.25;;;1.52;;
55220;SDS011;41089;51.448;6.604;2023-08-01T17:58:46;3.60;;;1.83;;
55220;SDS011;41089;51.448;6.604;2023-08-01T18:04:49;3.50;;;1.73;;
55220;SDS011;41089;51.448;6.604;2023-08-01T18:10:54;4.00;;;2.08;;
55220;SDS011;41089;51.448;6.604;2023-08-01T18:16:54;4.73;;;2.40;;
55220;SDS011;41089;51.448;6.604;2023-08-01T18:22:55;3.73;;;1.97;;
55220;SDS011;41089;51.448;6.604;2023-08-01T18:28:55;8.03;;;2.17;;
55220;SDS011;41089;51.448;6.604;2023-08-01T18:34:56;6.87;;;2.40;;
55220;SDS011;41089;51.448;6.604;2023-08-01T18:41:01;4.25;;;2.00;;
55220;SDS011;41089;51.448;6.604;2023-08-01T18:47:02;4.75;;;2.78;;
55220;SDS011;41089;51.448;6.604;2023-08-01T18:53:03;11.52;;;3.33;;
55220;SDS011;41089;51.448;6.604;2023-08-01T18:59:03;3.63;;;2.03;;
55220;SDS011;41089;51.448;6.604;2023-08-01T19:05:07;3.67;;;1.83;;
55220;SDS011;41089;51.448;6.604;2023-08-01T19:11:08;6.75;;;2.30;;
55220;SDS011;41089;51.448;6.604;2023-08-01T19:17:09;5.10;;;2.20;;
55220;SDS011;41089;51.448;6.604;2023-08-01T19:23:10;4.82;;;2.00;;
55220;SDS011;41089;51.448;6.604;2023-08-01T19:29:10;4.80;;;2.57;;
55220;SDS011;41089;51.448;6.604;2023-08-01T19:35:11;3.03;;;1.63;;
55220;SDS011;41089;51.448;6.604;2023-08-01T19:41:11;7.53;;;2.27;;
55220;SDS011;41089;51.448;6.604;2023-08-01T19:47:11;5.20;;;2.20;;
55220;SDS011;41089;51.448;6.604;2023-08-01T19:53:12;6.78;;;2.50;;
55220;SDS011;41089;51.448;6.604;2023-08-01T19:59:12;4.00;;;2.23;;
55220;SDS011;41089;51.448;6.604;2023-08-01T20:05:13;6.55;;;2.80;;
55220;SDS011;41089;51.448;6.604;2023-08-01T20:11:14;5.63;;;2.55;;
55220;SDS011;41089;51.448;6.604;2023-08-01T20:17:14;5.20;;;2.28;;
55220;SDS011;41089;51.448;6.604;2023-08-01T20:23:15;3.92;;;2.08;;
55220;SDS011;41089;51.448;6.604;2023-08-01T20:29:17;9.23;;;2.58;;
55220;SDS011;41089;51.448;6.604;2023-08-01T20:35:17;6.72;;;2.58;;
55220;SDS011;41089;51.448;6.604;2023-08-01T20:41:17;7.57;;;2.40;;
55220;SDS011;41089;51.448;6.604;2023-08-01T20:47:18;6.70;;;2.42;;
55220;SDS011;41089;51.448;6.604;2023-08-01T20:53:18;4.80;;;2.67;;
55220;SDS011;41089;51.448;6.604;2023-08-01T20:59:19;7.70;;;2.50;;
55220;SDS011;41089;51.448;6.604;2023-08-01T21:05:19;6.07;;;2.30;;
55220;SDS011;41089;51.448;6.604;2023-08-01T21:11:19;7.50;;;2.20;;
55220;SDS011;41089;51.448;6.604;2023-08-01T21:17:20;5.50;;;3.00;;
55220;SDS011;41089;51.448;6.604;2023-08-01T21:23:20;4.93;;;2.60;;
55220;SDS011;41089;51.448;6.604;2023-08-01T21:29:21;6.32;;;2.40;;
55220;SDS011;41089;51.448;6.604;2023-08-01T21:35:21;7.33;;;2.23;;
55220;SDS011;41089;51.448;6.604;2023-08-01T21:41:22;6.70;;;2.10;;
55220;SDS011;41089;51.448;6.604;2023-08-01T21:47:22;5.87;;;2.30;;
55220;SDS011;41089;51.448;6.604;2023-08-01T21:53:22;6.57;;;2.70;;
55220;SDS011;41089;51.448;6.604;2023-08-01T21:59:23;5.87;;;2.60;;
55220;SDS011;41089;51.448;6.604;2023-08-01T22:05:23;8.73;;;3.00;;
55220;SDS011;41089;51.448;6.604;2023-08-01T22:11:25;7.53;;;2.53;;
55220;SDS011;41089;51.448;6.604;2023-08-01T22:17:25;8.25;;;2.78;;
55220;SDS011;41089;51.448;6.604;2023-08-01T22:23:25;6.53;;;2.80;;
55220;SDS011;41089;51.448;6.604;2023-08-01T22:29:26;5.07;;;2.88;;
55220;SDS011;41089;51.448;6.604;2023-08-01T22:35:27;5.40;;;2.40;;
55220;SDS011;41089;51.448;6.604;2023-08-01T22:41:27;6.93;;;2.30;;
55220;SDS011;41089;51.448;6.604;2023-08-01T22:47:28;4.27;;;2.37;;
55220;SDS011;41089;51.448;6.604;2023-08-01T22:53:28;7.25;;;2.90;;
55220;SDS011;41089;51.448;6.604;2023-08-01T22:59:29;8.93;;;2.58;;
55220;SDS011;41089;51.448;6.604;2023-08-01T23:05:29;8.13;;;2.72;;
55220;SDS011;41089;51.448;6.604;2023-08-01T23:11:30;4.33;;;2.40;;
55220;SDS011;41089;51.448;6.604;2023-08-01T23:17:31;8.80;;;2.97;;
55220;SDS011;41089;51.448;6.604;2023-08-01T23:23:32;9.15;;;3.00;;
55220;SDS011;41089;51.448;6.604;2023-08-01T23:29:33;5.03;;;2.23;;
55220;SDS011;41089;51.448;6.604;2023-08-01T23:35:33;8.32;;;2.65;;
55220;SDS011;41089;51.448;6.604;2023-08-01T23:41:33;8.00;;;2.55;;
55220;SDS011;41089;51.448;6.604;2023-08-01T23:47:34;9.18;;;2.47;;
55220;SDS011;41089;51.448;6.604;2023-08-01T23:53:34;11.13;;;3.08;;
55220;SDS011;41089;51.448;6.604;2023-08-01T23:59:34;4.90;;;2.30;;
